Time;durP1;ratioP1;P1;durP2;ratioP2;P2;SDS_P1;SDS_P2;PMS_P1;PMS_P2;Temp;Humidity;BMP_temperature;BMP_pressure;BME280_temperature;BME280_humidity;BME280_pressure;Samples;Min_cycle;Max_cycle;Signal;HPM_P1;HPM_P2
2021/07/08 00:01:35;;;;;;;;;;;;;;;25.75;62.10;101087.28;5045984;28;1080;-66
2021/07/08 00:04:20;;;;;;;;;;;;;;;25.74;61.64;101089.13;5046482;28;1985;-66
2021/07/08 00:07:09;;;;;;;;;;;;;;;25.71;61.65;101088.53;5047427;28;1360;-66
2021/07/08 00:09:54;;;;;;;;;;;;;;;25.73;61.74;101089.22;5045214;28;1284;-67
2021/07/08 00:12:40;;;;;;;;;;;;;;;25.70;60.56;101089.47;5046520;28;1311;-67
2021/07/08 00:15:28;;;;;;;;;;;;;;;25.74;61.55;101088.28;5046144;28;1301;-66
2021/07/08 00:18:14;;;;;;;;;;;;;;;25.71;61.81;101083.19;5045208;28;1329;-66
2021/07/08 00:21:00;;;;;;;;;;;;;;;25.70;61.60;101089.47;5045870;28;1166;-67
2021/07/08 00:23:46;;;;;;;;;;;;;;;25.69;60.94;101087.78;5046770;28;1981;-67
2021/07/08 00:26:32;;;;;;;;;;;;;;;25.68;60.71;101089.63;5047124;28;1069;-67
2021/07/08 00:29:17;;;;;;;;;;;;;;;25.67;61.69;101092.41;5045817;28;1308;-66
2021/07/08 00:32:02;;;;;;;;;;;;;;;25.68;60.89;101094.09;5046482;28;1225;-66
2021/07/08 00:34:48;;;;;;;;;;;;;;;25.68;62.65;101099.44;5046941;28;1502;-66
2021/07/08 00:37:33;;;;;;;;;;;;;;;25.69;61.66;101099.28;5043737;28;1292;-65
2021/07/08 00:40:19;;;;;;;;;;;;;;;25.63;60.74;101102.47;5045807;28;1170;-65
2021/07/08 00:43:04;;;;;;;;;;;;;;;25.64;60.91;101098.84;5046588;28;1252;-65
2021/07/08 00:45:49;;;;;;;;;;;;;;;25.65;61.48;101103.22;5044065;28;1967;-65
2021/07/08 00:48:35;;;;;;;;;;;;;;;25.66;61.83;101096.03;5044758;28;1306;-65
2021/07/08 00:51:20;;;;;;;;;;;;;;;25.64;62.34;101100.66;5045572;28;1650;-65
2021/07/08 00:54:05;;;;;;;;;;;;;;;25.64;61.06;101106.84;5045868;28;1414;-66
2021/07/08 00:56:50;;;;;;;;;;;;;;;25.67;62.60;101100.41;5044097;28;1126;-67
2021/07/08 00:59:43;;;;;;;;;;;;;;;25.67;63.01;101100.41;5044594;28;1326;-67
2021/07/08 01:02:29;;;;;;;;;;;;;;;25.68;62.09;101110.09;5046560;28;1146;-67
2021/07/08 01:05:16;;;;;;;;;;;;;;;25.68;61.81;101104.78;5043890;28;1914;-66
2021/07/08 01:08:02;;;;;;;;;;;;;;;25.64;62.48;101103.31;5046717;28;1411;-67
2021/07/08 01:10:49;;;;;;;;;;;;;;;25.53;63.78;101097.00;5049664;28;1292;-67
2021/07/08 01:13:35;;;;;;;;;;;;;;;25.60;62.74;101107.19;5047850;28;1339;-65
2021/07/08 01:16:20;;;;;;;;;;;;;;;25.61;62.92;101106.22;5048722;28;1183;-66
2021/07/08 01:19:05;;;;;;;;;;;;;;;25.60;62.21;101101.84;5049057;28;1339;-66
2021/07/08 01:21:51;;;;;;;;;;;;;;;25.58;62.97;101103.81;5050242;28;1107;-66
2021/07/08 01:24:36;;;;;;;;;;;;;;;25.57;63.32;101108.28;5043804;28;1979;-66
2021/07/08 01:27:22;;;;;;;;;;;;;;;25.56;62.52;101111.94;5050237;28;1180;-66
2021/07/08 01:30:08;;;;;;;;;;;;;;;25.56;62.03;101109.28;5049470;28;1167;-64
2021/07/08 01:32:54;;;;;;;;;;;;;;;25.55;62.10;101104.91;5050669;28;1522;-64
2021/07/08 01:35:41;;;;;;;;;;;;;;;25.56;61.61;101105.75;5048576;28;1143;-64
2021/07/08 01:38:27;;;;;;;;;;;;;;;25.56;62.81;101106.63;5048675;28;1426;-64
2021/07/08 01:41:12;;;;;;;;;;;;;;;25.56;63.06;101111.09;5049313;28;1258;-65
2021/07/08 01:43:59;;;;;;;;;;;;;;;25.53;62.99;101102.34;5047355;28;1917;-65
2021/07/08 01:46:45;;;;;;;;;;;;;;;25.50;63.33;101094.59;5048489;28;1144;-66
2021/07/08 01:49:32;;;;;;;;;;;;;;;25.47;63.84;101102.81;5049274;28;1292;-65
2021/07/08 01:52:17;;;;;;;;;;;;;;;25.53;62.02;101104.19;5049824;28;1132;-65
2021/07/08 01:55:03;;;;;;;;;;;;;;;25.50;60.50;101109.78;5047715;28;1040;-65
2021/07/08 01:57:52;;;;;;;;;;;;;;;25.50;61.24;101107.09;5048918;28;1342;-65
2021/07/08 02:00:37;;;;;;;;;;;;;;;25.51;62.34;101103.44;5049386;28;1084;-64
2021/07/08 02:03:22;;;;;;;;;;;;;;;25.51;61.85;101098.97;5047379;28;1388;-66
2021/07/08 02:06:08;;;;;;;;;;;;;;;25.51;62.88;101104.28;5048008;28;1930;-66
2021/07/08 02:08:53;;;;;;;;;;;;;;;25.47;62.98;101107.31;5048156;28;1324;-66
2021/07/08 02:11:39;;;;;;;;;;;;;;;25.47;63.06;101104.66;5049456;28;1092;-66
2021/07/08 02:14:25;;;;;;;;;;;;;;;25.49;62.21;101114.25;5047085;28;1323;-67
2021/07/08 02:17:11;;;;;;;;;;;;;;;25.46;61.47;101116.28;5048275;28;1060;-67
2021/07/08 02:19:56;;;;;;;;;;;;;;;25.49;63.08;101118.72;5049262;28;1135;-67
2021/07/08 02:22:42;;;;;;;;;;;;;;;25.49;62.53;101134.72;5048265;28;1354;-66
2021/07/08 02:25:27;;;;;;;;;;;;;;;25.50;62.68;101117.78;5047248;28;1933;-66
2021/07/08 02:28:12;;;;;;;;;;;;;;;25.48;62.56;101104.53;5048187;28;1296;-66
2021/07/08 02:30:58;;;;;;;;;;;;;;;25.48;62.92;101098.31;5048747;28;1090;-66
2021/07/08 02:33:43;;;;;;;;;;;;;;;25.44;62.20;101103.03;5049643;28;1312;-66
2021/07/08 02:36:28;;;;;;;;;;;;;;;25.49;63.58;101106.25;5047601;28;1182;-65
2021/07/08 02:39:14;;;;;;;;;;;;;;;25.44;62.63;101113.72;5045198;28;1280;-66
2021/07/08 02:41:59;;;;;;;;;;;;;;;25.44;63.04;101107.56;5046408;28;1071;-67
2021/07/08 02:44:44;;;;;;;;;;;;;;;25.39;63.59;101115.91;5048097;28;1906;-66
2021/07/08 02:47:29;;;;;;;;;;;;;;;25.40;62.19;101104.28;5046484;28;1186;-66
2021/07/08 02:50:15;;;;;;;;;;;;;;;25.42;62.66;101098.81;5046841;28;1028;-66
2021/07/08 02:53:00;;;;;;;;;;;;;;;25.37;62.39;101085.84;5047994;28;1388;-66
2021/07/08 02:55:46;;;;;;;;;;;;;;;25.24;62.68;101084.28;5043985;28;1198;-65
2021/07/08 02:58:31;;;;;;;;;;;;;;;25.25;61.17;101076.16;5046529;28;1308;-66
2021/07/08 03:01:16;;;;;;;;;;;;;;;25.21;61.56;101074.69;5047711;28;1048;-66
2021/07/08 03:04:02;;;;;;;;;;;;;;;25.22;61.36;101089.75;5046381;28;1977;-66
2021/07/08 03:06:47;;;;;;;;;;;;;;;25.20;60.85;101098.84;5046996;28;1187;-66
2021/07/08 03:09:32;;;;;;;;;;;;;;;25.23;61.08;101115.41;5046938;28;1268;-66
2021/07/08 03:12:17;;;;;;;;;;;;;;;25.21;60.64;101114.69;5047594;28;1067;-67
2021/07/08 03:15:03;;;;;;;;;;;;;;;25.23;60.92;101119.91;5048240;28;1076;-66
2021/07/08 03:17:50;;;;;;;;;;;;;;;25.20;60.83;101117.50;5046251;28;1307;-66
2021/07/08 03:20:35;;;;;;;;;;;;;;;25.17;61.14;101118.56;5046026;28;1127;-66
2021/07/08 03:23:20;;;;;;;;;;;;;;;25.21;60.96;101116.50;5047496;28;1420;-66
2021/07/08 03:26:06;;;;;;;;;;;;;;;25.05;57.64;101116.84;5048161;28;1963;-67
2021/07/08 03:28:51;;;;;;;;;;;;;;;24.92;55.33;101127.63;5046110;28;1388;-67
2021/07/08 03:31:36;;;;;;;;;;;;;;;24.89;54.12;101138.53;5046714;28;1091;-66
2021/07/08 03:34:22;;;;;;;;;;;;;;;24.80;53.75;101157.84;5047260;28;1299;-66
2021/07/08 03:37:07;;;;;;;;;;;;;;;24.83;53.39;101170.13;5048049;28;1139;-65
2021/07/08 03:39:52;;;;;;;;;;;;;;;24.75;53.37;101177.78;5045900;28;1355;-65
2021/07/08 03:42:38;;;;;;;;;;;;;;;24.68;52.91;101187.22;5046721;28;1325;-66
2021/07/08 03:45:24;;;;;;;;;;;;;;;24.65;52.84;101192.78;5047379;28;1965;-66
2021/07/08 03:48:09;;;;;;;;;;;;;;;24.66;51.93;101186.47;5047879;28;1325;-66
2021/07/08 03:50:54;;;;;;;;;;;;;;;24.64;51.38;101186.59;5045554;28;1125;-66
2021/07/08 03:53:40;;;;;;;;;;;;;;;24.59;50.77;101174.59;5046508;28;1415;-66
2021/07/08 03:56:25;;;;;;;;;;;;;;;24.48;50.41;101170.91;5045807;28;1163;-66
2021/07/08 03:59:11;;;;;;;;;;;;;;;24.43;50.85;101181.06;5047620;28;1308;-65
2021/07/08 04:01:56;;;;;;;;;;;;;;;24.44;51.19;101179.22;5045909;28;1103;-65
2021/07/08 04:04:42;;;;;;;;;;;;;;;24.49;50.10;101185.06;5046172;28;1898;-67
2021/07/08 04:07:27;;;;;;;;;;;;;;;24.44;50.24;101185.41;5047278;28;1126;-66
2021/07/08 04:10:13;;;;;;;;;;;;;;;24.33;51.11;101177.38;5042160;28;1051;-66
2021/07/08 04:12:58;;;;;;;;;;;;;;;24.36;50.78;101169.16;5045983;28;1361;-66
2021/07/08 04:15:45;;;;;;;;;;;;;;;24.34;51.08;101160.44;5046351;28;1115;-65
2021/07/08 04:18:30;;;;;;;;;;;;;;;24.39;50.94;101171.59;5047439;28;1288;-65
2021/07/08 04:21:19;;;;;;;;;;;;;;;24.37;51.42;101173.53;5047976;28;1079;-65
2021/07/08 04:24:04;;;;;;;;;;;;;;;24.31;51.62;101184.63;5046765;28;1323;-65
2021/07/08 04:26:50;;;;;;;;;;;;;;;24.26;52.39;101192.09;5047102;28;1190;-65
2021/07/08 04:29:35;;;;;;;;;;;;;;;24.25;52.73;101198.38;5045020;28;1364;-65
2021/07/08 04:32:20;;;;;;;;;;;;;;;24.28;53.02;101195.50;5046335;28;1131;-65
2021/07/08 04:35:07;;;;;;;;;;;;;;;24.25;52.53;101211.69;5046387;28;1060;-65
2021/07/08 04:37:53;;;;;;;;;;;;;;;24.14;52.85;101213.41;5047577;28;1350;-65
2021/07/08 04:40:38;;;;;;;;;;;;;;;24.24;52.63;101212.66;5045024;28;1069;-65
2021/07/08 04:43:24;;;;;;;;;;;;;;;24.19;52.76;101212.16;5049851;28;1299;-65
2021/07/08 04:46:09;;;;;;;;;;;;;;;24.21;52.45;101226.19;5050597;28;1957;-65
2021/07/08 04:48:56;;;;;;;;;;;;;;;24.28;52.41;101235.44;5051372;28;1407;-64
2021/07/08 04:51:41;;;;;;;;;;;;;;;24.25;52.74;101235.66;5048927;28;1474;-65
2021/07/08 04:54:26;;;;;;;;;;;;;;;24.22;52.61;101233.22;5049737;28;1413;-64
2021/07/08 04:57:11;;;;;;;;;;;;;;;24.12;51.35;101218.00;5050619;28;1101;-65
2021/07/08 04:59:56;;;;;;;;;;;;;;;24.17;49.82;101229.16;5051128;28;1321;-65
2021/07/08 05:02:42;;;;;;;;;;;;;;;24.22;48.61;101237.69;5047954;28;1398;-65
2021/07/08 05:05:27;;;;;;;;;;;;;;;24.24;48.80;101238.41;5049857;28;1930;-65
2021/07/08 05:08:12;;;;;;;;;;;;;;;24.23;50.33;101247.34;5049542;28;1392;-65
2021/07/08 05:10:58;;;;;;;;;;;;;;;24.18;51.20;101258.34;5051259;28;1253;-65
2021/07/08 05:13:43;;;;;;;;;;;;;;;24.26;52.08;101255.97;5048696;28;1451;-65
2021/07/08 05:16:28;;;;;;;;;;;;;;;24.10;49.79;101268.66;5049779;28;1062;-65
2021/07/08 05:19:14;;;;;;;;;;;;;;;24.08;47.63;101275.88;5048741;28;1323;-65
2021/07/08 05:22:00;;;;;;;;;;;;;;;23.93;44.62;101274.31;5050964;28;1395;-67
2021/07/08 05:24:46;;;;;;;;;;;;;;;24.08;43.82;101265.25;5044819;28;1910;-64
2021/07/08 05:27:31;;;;;;;;;;;;;;;24.11;44.61;101275.72;5049528;28;1301;-64
2021/07/08 05:30:17;;;;;;;;;;;;;;;24.18;45.11;101284.97;5050804;28;1031;-65
2021/07/08 05:33:02;;;;;;;;;;;;;;;24.20;45.58;101279.50;5047859;28;1328;-64
2021/07/08 05:35:48;;;;;;;;;;;;;;;24.17;45.66;101277.94;5048600;28;1128;-65
2021/07/08 05:38:33;;;;;;;;;;;;;;;24.08;49.42;101278.56;5048060;28;1284;-65
2021/07/08 05:41:18;;;;;;;;;;;;;;;24.11;51.00;101278.38;5049835;28;1055;-65
2021/07/08 05:44:05;;;;;;;;;;;;;;;24.08;51.95;101278.56;5048261;28;1312;-63
2021/07/08 05:46:50;;;;;;;;;;;;;;;24.18;52.17;101282.31;5048604;28;1914;-64
2021/07/08 05:49:35;;;;;;;;;;;;;;;24.16;52.55;101294.88;5049096;28;1351;-64
2021/07/08 05:52:21;;;;;;;;;;;;;;;24.16;52.94;101297.53;5049186;28;1627;-65
2021/07/08 05:55:06;;;;;;;;;;;;;;;24.15;53.64;101289.66;5047817;28;1059;-64
2021/07/08 05:57:52;;;;;;;;;;;;;;;24.06;53.66;101288.47;5047222;28;1317;-65
2021/07/08 06:00:38;;;;;;;;;;;;;;;24.07;54.58;101300.81;5049280;28;1154;-65
2021/07/08 06:03:24;;;;;;;;;;;;;;;24.16;54.58;101297.53;5049996;28;1295;-64
2021/07/08 06:06:09;;;;;;;;;;;;;;;24.01;54.08;101298.59;5048554;28;1969;-66
2021/07/08 06:08:55;;;;;;;;;;;;;;;24.09;53.46;101303.38;5047855;28;1304;-65
2021/07/08 06:11:40;;;;;;;;;;;;;;;24.16;52.74;101313.50;5049182;28;1152;-64
2021/07/08 06:14:25;;;;;;;;;;;;;;;24.12;50.95;101314.69;5045888;28;1379;-64
2021/07/08 06:17:11;;;;;;;;;;;;;;;24.12;49.52;101322.66;5048068;28;1090;-63
2021/07/08 06:19:56;;;;;;;;;;;;;;;24.20;49.07;101322.97;5048401;28;1083;-64
2021/07/08 06:22:41;;;;;;;;;;;;;;;24.16;48.11;101324.16;5049280;28;1530;-64
2021/07/08 06:25:30;;;;;;;;;;;;;;;24.18;46.87;101327.56;5046983;28;1965;-65
2021/07/08 06:28:16;;;;;;;;;;;;;;;24.14;44.94;101334.03;5048066;28;1330;-64
2021/07/08 06:31:02;;;;;;;;;;;;;;;24.12;43.32;101333.31;5048914;28;1116;-65
2021/07/08 06:33:47;;;;;;;;;;;;;;;24.22;43.13;101352.16;5045371;28;1324;-66
2021/07/08 06:36:33;;;;;;;;;;;;;;;24.26;42.33;101359.78;5043239;28;1277;-64
2021/07/08 06:39:18;;;;;;;;;;;;;;;24.30;42.07;101355.97;5046612;28;1309;-66
2021/07/08 06:42:04;;;;;;;;;;;;;;;24.33;41.75;101341.59;5046626;28;1120;-65
2021/07/08 06:44:49;;;;;;;;;;;;;;;24.37;41.38;101348.41;5045734;28;1457;-64
2021/07/08 06:47:39;;;;;;;;;;;;;;;24.39;41.68;101346.47;5044778;28;1526;-66
2021/07/08 06:50:25;;;;;;;;;;;;;;;24.42;41.58;101355.09;5039341;28;1668;-65
2021/07/08 06:53:10;;;;;;;;;;;;;;;24.45;41.72;101357.53;5047056;28;1331;-65
2021/07/08 06:55:55;;;;;;;;;;;;;;;24.47;41.47;101360.94;5044768;28;1145;-67
2021/07/08 06:58:41;;;;;;;;;;;;;;;24.51;41.39;101355.38;5045889;28;1417;-68
2021/07/08 07:01:26;;;;;;;;;;;;;;;24.55;41.76;101359.53;5047292;28;1150;-66
2021/07/08 07:04:11;;;;;;;;;;;;;;;24.57;41.85;101365.59;5046482;28;1292;-65
2021/07/08 07:06:57;;;;;;;;;;;;;;;24.59;41.99;101379.69;5045595;28;1968;-65
2021/07/08 07:09:42;;;;;;;;;;;;;;;24.61;41.73;101388.41;5046185;28;1401;-66
2021/07/08 07:12:28;;;;;;;;;;;;;;;24.64;42.24;101382.84;5047505;28;1159;-65
2021/07/08 07:15:14;;;;;;;;;;;;;;;24.65;42.16;101387.22;5035817;28;1270;-65
2021/07/08 07:18:04;;;;;;;;;;;;;;;24.68;42.69;101395.00;5046517;28;1334;-65
2021/07/08 07:20:49;;;;;;;;;;;;;;;24.75;42.86;101397.09;5045727;28;1131;-67
2021/07/08 07:23:34;;;;;;;;;;;;;;;24.70;40.68;101393.06;5043342;28;1342;-66
2021/07/08 07:26:21;;;;;;;;;;;;;;;24.64;39.81;101389.03;5045591;28;1926;-67
2021/07/08 07:29:07;;;;;;;;;;;;;;;24.64;39.69;101382.84;5045211;28;1391;-68
2021/07/08 07:31:52;;;;;;;;;;;;;;;24.57;40.27;101379.78;5046402;28;1171;-69
2021/07/08 07:34:38;;;;;;;;;;;;;;;24.63;40.19;101392.66;5043628;28;1338;-69
2021/07/08 07:37:24;;;;;;;;;;;;;;;24.72;47.13;101407.13;5043488;28;1118;-71
2021/07/08 07:40:09;;;;;;;;;;;;;;;24.67;48.41;101406.63;5043819;28;1147;-73
2021/07/08 07:42:54;;;;;;;;;;;;;;;24.71;45.99;101405.44;5047831;28;1394;-74
2021/07/08 07:45:41;;;;;;;;;;;;;;;24.69;41.06;101402.88;5044878;28;1898;-68
2021/07/08 07:48:27;;;;;;;;;;;;;;;24.71;40.84;101403.63;5045823;28;1263;-69
2021/07/08 07:51:12;;;;;;;;;;;;;;;24.73;40.00;101399.03;5044516;28;1927;-67
2021/07/08 07:53:58;;;;;;;;;;;;;;;24.75;39.16;101407.75;5030935;28;1277;-65
2021/07/08 07:56:43;;;;;;;;;;;;;;;24.68;39.51;101409.19;5046816;28;1033;-68
2021/07/08 07:59:29;;;;;;;;;;;;;;;24.68;39.05;101411.00;5046123;28;1216;-68
2021/07/08 08:02:14;;;;;;;;;;;;;;;24.71;39.14;101421.44;5045599;28;1683;-67
2021/07/08 08:10:56;;;;;;;;;;;;;;;24.79;38.53;101422.56;5046957;28;978;-64
2021/07/08 08:13:41;;;;;;;;;;;;;;;24.80;38.14;101421.63;5046944;28;1276;-64
2021/07/08 08:16:28;;;;;;;;;;;;;;;24.79;38.55;101419.91;5046255;28;982;-64
2021/07/08 08:19:14;;;;;;;;;;;;;;;24.83;38.49;101420.56;5046607;28;1374;-63
2021/07/08 08:21:59;;;;;;;;;;;;;;;24.80;38.47;101421.63;5046876;28;1062;-64
2021/07/08 08:24:44;;;;;;;;;;;;;;;24.84;38.42;101422.25;5046561;28;1281;-65
2021/07/08 08:27:30;;;;;;;;;;;;;;;24.86;41.19;101415.88;5045989;28;1906;-64
2021/07/08 08:30:15;;;;;;;;;;;;;;;24.89;43.84;101430.78;5046545;28;1173;-65
2021/07/08 08:33:01;;;;;;;;;;;;;;;24.90;46.52;101435.13;5045821;28;1251;-65
2021/07/08 08:35:47;;;;;;;;;;;;;;;24.89;48.19;101436.13;5046562;28;1186;-66
2021/07/08 08:38:32;;;;;;;;;;;;;;;24.91;47.99;101428.84;5046942;28;1299;-65
2021/07/08 08:41:18;;;;;;;;;;;;;;;24.94;48.53;101431.31;5046582;28;1066;-66
2021/07/08 08:44:05;;;;;;;;;;;;;;;24.95;48.47;101438.34;5045933;28;1398;-67
2021/07/08 08:46:51;;;;;;;;;;;;;;;24.96;48.48;101448.03;5046173;28;1963;-65
2021/07/08 08:49:40;;;;;;;;;;;;;;;24.96;48.60;101432.03;5045030;28;1365;-65
2021/07/08 08:52:28;;;;;;;;;;;;;;;24.96;48.73;101432.03;5045461;28;1477;-66
2021/07/08 08:55:13;;;;;;;;;;;;;;;24.98;49.66;101430.13;5044992;28;629;-64
2021/07/08 08:57:58;;;;;;;;;;;;;;;25.00;49.74;101436.19;5045654;28;1258;-64
2021/07/08 09:00:54;;;;;;;;;;;;;;;25.02;50.21;101433.44;5045206;28;1130;-63
2021/07/08 09:03:40;;;;;;;;;;;;;;;25.03;50.40;101433.31;5045825;28;1236;-65
2021/07/08 09:06:33;;;;;;;;;;;;;;;25.07;50.66;101434.78;5046320;28;1905;-63
2021/07/08 09:09:19;;;;;;;;;;;;;;;25.11;50.57;101438.91;5046357;28;1219;-64
2021/07/08 09:12:14;;;;;;;;;;;;;;;25.09;50.77;101426.66;5046564;28;1132;-66
2021/07/08 09:15:16;;;;;;;;;;;;;;;25.08;50.77;101428.47;5046062;28;750;-66
2021/07/08 09:18:02;;;;;;;;;;;;;;;25.12;51.05;101440.63;5046587;28;1300;-66
2021/07/08 09:20:47;;;;;;;;;;;;;;;25.16;51.25;101438.59;5045865;28;1073;-66
2021/07/08 09:23:33;;;;;;;;;;;;;;;25.17;51.45;101437.63;5045660;28;1279;-64
2021/07/08 09:26:19;;;;;;;;;;;;;;;25.18;51.39;101432.19;5045459;28;1910;-64
2021/07/08 09:29:05;;;;;;;;;;;;;;;25.20;51.23;101424.91;5048261;28;1331;-63
2021/07/08 09:31:53;;;;;;;;;;;;;;;25.22;50.73;101422.16;5045958;28;1500;-63
2021/07/08 09:34:40;;;;;;;;;;;;;;;25.22;50.02;101428.34;5040420;28;1310;-63
2021/07/08 09:37:26;;;;;;;;;;;;;;;25.21;49.93;101420.44;5049852;28;1066;-66
2021/07/08 09:40:19;;;;;;;;;;;;;;;25.26;49.92;101437.78;5049269;28;668;-66
2021/07/08 09:43:05;;;;;;;;;;;;;;;25.16;49.78;101427.94;5047613;28;1361;-66
2021/07/08 09:45:50;;;;;;;;;;;;;;;25.24;49.96;101425.53;5047632;28;1942;-65
2021/07/08 09:48:37;;;;;;;;;;;;;;;25.18;49.84;101426.00;5048650;28;1296;-66
2021/07/08 09:51:29;;;;;;;;;;;;;;;25.24;50.46;101434.41;5048878;28;1323;-66
2021/07/08 09:57:00;;;;;;;;;;;;;;;25.26;49.65;101427.13;5048787;28;1092;-66
2021/07/08 09:59:46;;;;;;;;;;;;;;;25.36;49.89;101425.50;5048216;28;1352;-62
2021/07/08 10:02:33;;;;;;;;;;;;;;;25.32;50.26;101425.84;5047162;28;1327;-62
2021/07/08 10:05:18;;;;;;;;;;;;;;;25.35;49.97;101434.44;5047643;28;679;-63
2021/07/08 10:08:06;;;;;;;;;;;;;;;25.36;50.18;101421.97;5047745;28;1906;-65
2021/07/08 10:10:52;;;;;;;;;;;;;;;25.33;49.54;101424.84;5047640;28;1268;-65
2021/07/08 10:13:38;;;;;;;;;;;;;;;25.35;49.55;101421.09;5045353;28;1383;-65
2021/07/08 10:16:25;;;;;;;;;;;;;;;25.36;48.77;101420.16;5047930;28;1233;-63
2021/07/08 10:19:13;;;;;;;;;;;;;;;25.40;47.76;101418.97;5046970;28;1577;-63
2021/07/08 10:21:59;;;;;;;;;;;;;;;25.40;41.38;101410.97;5048054;28;1117;-63
2021/07/08 10:24:44;;;;;;;;;;;;;;;25.40;40.52;101410.97;5029762;28;1771;-62
2021/07/08 10:27:30;;;;;;;;;;;;;;;25.39;40.73;101413.72;5029985;28;1910;-62
2021/07/08 10:30:19;;;;;;;;;;;;;;;25.43;43.18;101418.75;5031794;28;1675;-62
2021/07/08 10:33:04;;;;;;;;;;;;;;;25.46;44.01;101417.66;5037584;28;1747;-62
2021/07/08 10:35:51;;;;;;;;;;;;;;;25.43;48.17;101409.88;5037123;28;1594;-62
2021/07/08 10:38:40;;;;;;;;;;;;;;;25.45;48.72;101392.78;5040367;28;1744;-62
2021/07/08 10:41:25;;;;;;;;;;;;;;;25.50;49.00;101406.66;5047434;28;1447;-63
2021/07/08 10:44:29;;;;;;;;;;;;;;;25.52;49.17;101415.41;5047365;28;1315;-64
2021/07/08 10:47:30;;;;;;;;;;;;;;;25.54;49.74;101409.94;5047746;28;1981;-65
2021/07/08 10:50:35;;;;;;;;;;;;;;;25.63;49.41;101405.75;5047520;28;709;-62
2021/07/08 10:53:22;;;;;;;;;;;;;;;25.61;49.19;101407.69;5047003;28;1228;-63
2021/07/08 10:56:08;;;;;;;;;;;;;;;25.60;48.60;101408.63;5040905;28;1487;-62
2021/07/08 10:58:55;;;;;;;;;;;;;;;25.63;49.09;101408.41;5033794;28;1338;-61
2021/07/08 11:01:48;;;;;;;;;;;;;;;25.59;48.67;101399.81;5028938;28;1022;-64
2021/07/08 11:04:50;;;;;;;;;;;;;;;25.70;48.04;101402.50;5029089;28;1178;-62
2021/07/08 11:07:46;;;;;;;;;;;;;;;25.80;48.12;101397.31;5028935;28;1981;-64
2021/07/08 11:10:33;;;;;;;;;;;;;;;25.81;48.23;101399.84;5028278;28;620;-66
2021/07/08 11:13:26;;;;;;;;;;;;;;;25.73;47.79;101401.41;5030286;28;1746;-64
2021/07/08 11:16:30;;;;;;;;;;;;;;;25.74;47.55;101403.97;5042276;28;1799;-65
2021/07/08 11:19:29;;;;;;;;;;;;;;;25.72;48.55;101399.69;5046738;28;1276;-65
2021/07/08 11:22:21;;;;;;;;;;;;;;;25.68;48.81;101388.44;5047681;28;1749;-63
2021/07/08 11:25:07;;;;;;;;;;;;;;;25.83;49.87;101402.44;5047067;28;747;-66
2021/07/08 11:27:53;;;;;;;;;;;;;;;25.84;49.17;101399.63;5046880;28;1894;-67
2021/07/08 11:30:38;;;;;;;;;;;;;;;25.85;49.25;101396.00;5034786;28;1764;-63
2021/07/08 11:33:23;;;;;;;;;;;;;;;25.90;49.01;101398.31;5025739;28;1273;-66
2021/07/08 11:36:19;;;;;;;;;;;;;;;25.95;48.21;101391.66;5027322;28;1112;-65
2021/07/08 11:39:04;;;;;;;;;;;;;;;25.98;48.66;101396.75;5026841;28;1350;-62
2021/07/08 11:41:53;;;;;;;;;;;;;;;26.03;47.71;101393.72;5027391;28;932;-64
2021/07/08 11:44:40;;;;;;;;;;;;;;;26.02;46.83;101387.53;5039813;28;1323;-67
2021/07/08 11:47:25;;;;;;;;;;;;;;;25.99;47.83;101392.28;5037204;28;1906;-68
2021/07/08 11:50:14;;;;;;;;;;;;;;;26.00;46.92;101391.28;5046984;28;652;-71
2021/07/08 11:53:05;;;;;;;;;;;;;;;25.94;47.51;101395.28;5044419;28;1221;-68
2021/07/08 11:55:51;;;;;;;;;;;;;;;25.88;47.86;101386.91;5044438;28;1730;-70
2021/07/08 11:58:37;;;;;;;;;;;;;;;25.85;48.56;101384.47;5045019;28;1248;-67
2021/07/08 12:01:23;;;;;;;;;;;;;;;25.83;48.95;101389.94;5046266;28;1027;-70
2021/07/08 12:04:19;;;;;;;;;;;;;;;25.84;49.30;101386.28;5046051;28;1382;-72
2021/07/08 12:07:05;;;;;;;;;;;;;;;25.87;48.92;101387.88;5046646;28;1910;-71
2021/07/08 12:09:51;;;;;;;;;;;;;;;25.75;48.20;101380.78;5046966;28;1297;-70
2021/07/08 12:12:37;;;;;;;;;;;;;;;25.50;47.41;101382.66;5046707;28;1329;-72
2021/07/08 12:15:26;;;;;;;;;;;;;;;25.41;47.28;101377.16;5046317;28;603;-70
2021/07/08 12:18:11;;;;;;;;;;;;;;;25.25;45.35;101388.13;5046222;28;1339;-72
2021/07/08 12:20:57;;;;;;;;;;;;;;;25.28;45.15;101395.88;5041938;28;1768;-71
2021/07/08 12:23:43;;;;;;;;;;;;;;;25.31;45.79;101398.31;5026889;28;1213;-67
2021/07/08 12:26:31;;;;;;;;;;;;;;;25.22;44.27;101396.34;5026128;28;1910;-68
2021/07/08 12:29:22;;;;;;;;;;;;;;;25.25;43.96;101396.13;5026439;28;1281;-67
2021/07/08 12:32:12;;;;;;;;;;;;;;;25.08;43.98;101398.31;5026896;28;1175;-67
2021/07/08 12:34:58;;;;;;;;;;;;;;;24.97;43.80;101397.28;5026942;28;657;-65
2021/07/08 12:37:44;;;;;;;;;;;;;;;24.82;44.97;101392.22;5027270;28;1225;-67
2021/07/08 12:40:29;;;;;;;;;;;;;;;24.72;42.89;101392.00;5026968;28;641;-67
2021/07/08 12:43:16;;;;;;;;;;;;;;;24.63;43.31;101382.00;5026736;28;1280;-68
2021/07/08 12:46:08;;;;;;;;;;;;;;;24.67;42.27;101382.63;5026579;28;1063;-67
2021/07/08 12:48:54;;;;;;;;;;;;;;;24.57;41.82;101381.59;5026481;28;1302;-66
2021/07/08 12:51:39;;;;;;;;;;;;;;;24.50;45.10;101386.50;5025051;28;1201;-66
2021/07/08 12:54:28;;;;;;;;;;;;;;;24.43;41.47;101388.75;5026430;28;1367;-65
2021/07/08 12:57:19;;;;;;;;;;;;;;;24.42;43.97;101389.72;5026632;28;1122;-64
2021/07/08 13:00:06;;;;;;;;;;;;;;;24.39;43.51;101397.06;5026109;28;707;-64
2021/07/08 13:02:52;;;;;;;;;;;;;;;24.37;43.41;101391.84;5028419;28;1229;-64
2021/07/08 13:05:38;;;;;;;;;;;;;;;24.37;40.38;101391.84;5029706;28;989;-65
2021/07/08 13:08:25;;;;;;;;;;;;;;;24.31;40.96;101394.09;5029803;28;1967;-64
2021/07/08 13:11:12;;;;;;;;;;;;;;;24.30;40.81;101393.25;5029794;28;1118;-66
2021/07/08 13:14:15;;;;;;;;;;;;;;;24.37;42.66;101397.19;5029756;28;1386;-66
2021/07/08 13:17:04;;;;;;;;;;;;;;;24.47;41.09;101387.56;5030120;28;1116;-71
2021/07/08 13:19:58;;;;;;;;;;;;;;;24.66;41.61;101384.44;5030046;28;1351;-68
2021/07/08 13:22:46;;;;;;;;;;;;;;;24.79;42.97;101384.41;5049063;28;1772;-70
2021/07/08 13:25:31;;;;;;;;;;;;;;;24.83;43.67;101388.59;5049650;28;616;-69
2021/07/08 13:28:20;;;;;;;;;;;;;;;24.87;44.00;101374.94;5038844;28;1918;-66
2021/07/08 13:31:08;;;;;;;;;;;;;;;24.92;44.54;101390.59;5049262;28;1257;-66
2021/07/08 13:33:55;;;;;;;;;;;;;;;24.90;44.76;101372.03;5029476;28;1213;-67
2021/07/08 13:36:45;;;;;;;;;;;;;;;24.93;44.71;101373.63;5038209;28;1123;-70
2021/07/08 13:39:30;;;;;;;;;;;;;;;24.94;44.82;101373.53;5048788;28;1339;-66
2021/07/08 13:42:22;;;;;;;;;;;;;;;24.96;44.97;101370.72;5048581;28;1542;-68
2021/07/08 13:45:26;;;;;;;;;;;;;;;24.96;44.71;101365.41;5048847;28;1253;-69
2021/07/08 13:48:15;;;;;;;;;;;;;;;24.96;44.82;101370.72;5048337;28;1955;-70
2021/07/08 13:51:07;;;;;;;;;;;;;;;24.98;44.72;101366.16;5048758;28;1415;-69
2021/07/08 13:53:53;;;;;;;;;;;;;;;24.92;45.15;101375.47;5030694;28;1282;-68
2021/07/08 13:56:38;;;;;;;;;;;;;;;24.91;44.74;101370.22;5030267;28;1131;-70
2021/07/08 13:59:24;;;;;;;;;;;;;;;24.86;44.72;101372.41;5030540;28;1289;-68
2021/07/08 14:02:12;;;;;;;;;;;;;;;24.85;44.92;101376.88;5031390;28;1543;-68
2021/07/08 14:04:57;;;;;;;;;;;;;;;24.92;44.37;101377.28;5034397;28;698;-63
2021/07/08 14:07:42;;;;;;;;;;;;;;;24.87;44.42;101371.41;5045954;28;1893;-64
2021/07/08 14:10:27;;;;;;;;;;;;;;;24.87;44.50;101364.28;5047270;28;1015;-69
2021/07/08 14:13:13;;;;;;;;;;;;;;;24.91;44.63;101378.22;5049149;28;1337;-64
2021/07/08 14:15:58;;;;;;;;;;;;;;;24.94;44.67;101370.00;5049394;28;1120;-71
2021/07/08 14:18:44;;;;;;;;;;;;;;;24.97;44.18;101370.63;5049261;28;1283;-67
2021/07/08 14:21:29;;;;;;;;;;;;;;;24.93;44.39;101362.97;5049473;28;1132;-71
2021/07/08 14:24:14;;;;;;;;;;;;;;;24.95;44.27;101366.38;5048079;28;1264;-67
2021/07/08 14:27:01;;;;;;;;;;;;;;;24.87;44.52;101382.91;5049618;28;1913;-66
2021/07/08 14:29:46;;;;;;;;;;;;;;;24.91;44.88;101371.09;5047565;28;1303;-67
2021/07/08 14:32:32;;;;;;;;;;;;;;;24.90;44.53;101380.03;5049298;28;1248;-69
2021/07/08 14:35:17;;;;;;;;;;;;;;;24.88;44.91;101381.97;5049362;28;612;-69
2021/07/08 14:38:03;;;;;;;;;;;;;;;25.08;46.71;101367.16;5047944;28;1371;-71